This is the latest recevied weather packets stored in our database for station/object EA1BVF-10. If no packets are shown the sender has not sent any weather packets the latest 10 day(s).
| Time | Temp. | Humidity | Pressure | Rain* | Wind** | Luminosity | Snow |
|---|---|---|---|---|---|---|---|
| 1777896459 | 10.56° C | 80% | 1028.9 hPa | - | - | - | - |
| 1777894659 | 10.56° C | 80% | 1029 hPa | - | - | - | - |
| 1777892859 | 10.56° C | 80% | 1029.1 hPa | - | - | - | - |
| 1777891059 | 10° C | 81% | 1029.2 hPa | - | - | - | - |
| 1777889258 | 10° C | 81% | 1029.1 hPa | - | - | - | - |
| 1777887458 | 10° C | 81% | 1029 hPa | - | - | - | - |
| 1777885658 | 10° C | 82% | 1028.8 hPa | - | - | - | - |
| 1777883858 | 10° C | 82% | 1028.8 hPa | - | - | - | - |
| 1777882060 | 9.44° C | 83% | 1028.8 hPa | - | - | - | - |
| 1777880258 | 9.44° C | 83% | 1028.5 hPa | - | - | - | - |
| 1777878458 | 9.44° C | 84% | 1028.4 hPa | - | - | - | - |
| 1777876658 | 8.89° C | 85% | 1028 hPa | - | - | - | - |
| 1777874858 | 8.89° C | 86% | 1028 hPa | - | - | - | - |
| 1777873058 | 8.89° C | 87% | 1027.7 hPa | - | - | - | - |
| 1777872706 | 8.33° C | 87% | 1027.5 hPa | - | - | - | - |
| 1777856779 | 12.22° C | 76% | 1028.3 hPa | - | - | - | - |
| 1777856464 | 12.22° C | 76% | 1028.3 hPa | - | - | - | - |
| 1777856218 | 12.22° C | 76% | 1028.3 hPa | - | - | - | - |
| 1777855989 | 12.22° C | 76% | 1028.4 hPa | - | - | - | - |
| 1777855774 | 12.22° C | 75% | 1028.3 hPa | - | - | - | - |
| 1777855593 | 12.78° C | 76% | 1028.3 hPa | - | - | - | - |
| 1777855421 | 12.78° C | 75% | 1028.4 hPa | - | - | - | - |
| 1777855249 | 12.22° C | 75% | 1028.4 hPa | - | - | - | - |
| 1777855137 | 12.78° C | 75% | 1028.4 hPa | - | - | - | - |
| 1777853338 | 12.78° C | 75% | 1028.5 hPa | - | - | - | - |
* Rain since midnight (hover to see other rain measurements)
** Current wind speed in m/s (hover to see current wind gust speed)